createdAt,value
2023-09-19T00:00:44.828Z,58.24
2023-09-19T00:03:13.562Z,58.41
2023-09-19T00:05:40.728Z,58.35
2023-09-19T00:08:07.933Z,58.49
2023-09-19T00:10:38.866Z,58.67
2023-09-19T00:13:06.139Z,58.57
2023-09-19T00:15:41.640Z,58.47
2023-09-19T00:18:10.386Z,58.34
2023-09-19T00:20:37.894Z,58.30
2023-09-19T00:23:05.956Z,58.37
2023-09-19T00:25:33.286Z,58.37
2023-09-19T00:28:00.544Z,58.42
2023-09-19T00:30:30.143Z,58.35
2023-09-19T00:32:57.663Z,58.82
2023-09-19T00:35:25.255Z,59.01
2023-09-19T00:37:52.853Z,59.02
2023-09-19T00:40:20.180Z,59.23
2023-09-19T00:42:47.998Z,59.38
2023-09-19T00:45:16.388Z,59.49
2023-09-19T00:47:52.139Z,59.65
2023-09-19T00:50:21.898Z,59.94
2023-09-19T00:52:50.845Z,60.04
2023-09-19T00:55:20.956Z,60.12
2023-09-19T00:57:50.351Z,60.29
2023-09-19T01:00:19.993Z,60.39
2023-09-19T01:02:47.562Z,60.61
2023-09-19T01:05:17.297Z,60.42
2023-09-19T01:07:49.534Z,60.50
2023-09-19T01:10:21.061Z,60.49
2023-09-19T01:13:22.485Z,60.41
2023-09-19T01:16:01.682Z,60.25
2023-09-19T01:18:39.725Z,60.16
2023-09-19T01:21:31.604Z,59.93
2023-09-19T01:24:11.197Z,59.81
2023-09-19T01:26:47.963Z,59.52
2023-09-19T01:29:39.806Z,59.36
2023-09-19T01:32:11.921Z,59.32
2023-09-19T01:34:46.408Z,59.39
2023-09-19T01:37:15.925Z,59.36
2023-09-19T01:39:45.086Z,59.30
2023-09-19T01:42:23.420Z,59.12
2023-09-19T01:44:56.410Z,59.01
2023-09-19T01:47:37.086Z,58.86
2023-09-19T01:50:33.091Z,58.78
2023-09-19T01:53:14.847Z,58.66
2023-09-19T01:55:44.373Z,58.50
2023-09-19T01:58:33.955Z,58.30
2023-09-19T02:01:01.254Z,58.16
2023-09-19T02:03:29.481Z,58.12
2023-09-19T02:05:56.878Z,57.81
2023-09-19T02:08:26.806Z,57.65
2023-09-19T02:10:53.916Z,57.36
2023-09-19T02:13:21.682Z,57.36
2023-09-19T02:15:48.782Z,57.19
2023-09-19T02:18:16.594Z,57.09
2023-09-19T02:20:46.632Z,57.16
2023-09-19T02:23:13.901Z,57.18
2023-09-19T02:25:42.012Z,57.08
2023-09-19T02:28:09.894Z,57.17
2023-09-19T02:30:37.459Z,57.23
2023-09-19T02:33:06.289Z,57.36
2023-09-19T02:35:36.983Z,57.42
2023-09-19T02:38:07.005Z,57.50
2023-09-19T02:40:37.208Z,57.63
2023-09-19T02:43:06.106Z,57.70
2023-09-19T02:45:34.013Z,57.87
2023-09-19T02:48:03.884Z,58.02
2023-09-19T02:50:31.742Z,58.25
2023-09-19T02:53:00.564Z,58.45
2023-09-19T02:55:28.954Z,58.46
2023-09-19T02:57:56.264Z,58.65
2023-09-19T03:00:23.900Z,58.66
2023-09-19T03:02:52.972Z,58.75
2023-09-19T03:05:21.750Z,58.94
2023-09-19T03:07:51.397Z,59.06
2023-09-19T03:10:19.960Z,59.05
2023-09-19T03:12:48.287Z,59.02
2023-09-19T03:15:18.474Z,58.99
2023-09-19T03:17:49.253Z,59.17
2023-09-19T03:20:21.852Z,59.04
2023-09-19T03:22:49.762Z,59.02
2023-09-19T03:25:17.803Z,58.87
2023-09-19T03:27:48.041Z,58.82
2023-09-19T03:30:15.431Z,58.92
2023-09-19T03:32:47.591Z,58.92
2023-09-19T03:35:15.742Z,58.82
2023-09-19T03:37:44.677Z,58.77
2023-09-19T03:40:12.346Z,58.83
2023-09-19T03:42:42.824Z,58.91
2023-09-19T03:45:13.836Z,58.99
2023-09-19T03:47:47.770Z,59.05
2023-09-19T03:50:18.058Z,59.00
2023-09-19T03:52:46.093Z,59.01
2023-09-19T03:55:13.730Z,59.08
2023-09-19T03:57:48.746Z,59.09
2023-09-19T04:00:19.460Z,59.20
2023-09-19T04:02:47.168Z,59.14
2023-09-19T04:05:15.187Z,59.10
2023-09-19T04:07:43.086Z,59.14
2023-09-19T04:10:12.246Z,59.12
2023-09-19T04:12:57.663Z,59.21
2023-09-19T04:15:29.740Z,59.24
2023-09-19T04:17:58.602Z,59.25
2023-09-19T04:20:26.497Z,59.21
2023-09-19T04:22:53.922Z,59.08
2023-09-19T04:25:21.822Z,58.70
2023-09-19T04:27:49.836Z,58.38
2023-09-19T04:30:17.912Z,58.24
2023-09-19T04:32:51.484Z,58.07
2023-09-19T04:35:19.064Z,57.89
2023-09-19T04:37:48.800Z,57.79
2023-09-19T04:40:19.306Z,57.69
2023-09-19T04:42:58.642Z,57.52
2023-09-19T04:45:27.420Z,57.46
2023-09-19T04:47:54.921Z,57.32
2023-09-19T04:50:28.638Z,57.21
2023-09-19T04:52:55.871Z,57.24
2023-09-19T04:55:23.322Z,56.95
2023-09-19T04:57:51.438Z,56.73
2023-09-19T05:00:19.729Z,56.60
2023-09-19T05:02:50.319Z,56.62
2023-09-19T05:05:19.528Z,56.70
2023-09-19T05:07:47.572Z,56.66
2023-09-19T05:10:15.362Z,56.79
2023-09-19T05:12:45.916Z,56.73
2023-09-19T05:15:13.650Z,56.66
2023-09-19T05:17:42.603Z,56.61
2023-09-19T05:20:25.570Z,56.43
2023-09-19T05:23:03.776Z,56.21
2023-09-19T05:25:39.218Z,55.85
2023-09-19T05:28:12.270Z,55.51
2023-09-19T05:30:41.364Z,55.37
2023-09-19T05:33:32.008Z,55.23
2023-09-19T05:35:59.984Z,55.11
2023-09-19T05:38:28.323Z,55.01
2023-09-19T05:40:55.537Z,55.00
2023-09-19T05:43:24.407Z,54.85
2023-09-19T05:45:52.801Z,54.59
2023-09-19T05:48:21.799Z,54.54
2023-09-19T05:51:02.434Z,54.15
2023-09-19T05:53:31.309Z,54.00
2023-09-19T05:56:01.719Z,53.87
2023-09-19T05:58:31.001Z,53.95
2023-09-19T06:01:10.880Z,53.79
2023-09-19T06:03:39.008Z,53.10
2023-09-19T06:06:07.224Z,52.80
2023-09-19T06:08:35.093Z,52.85
2023-09-19T06:11:02.944Z,52.66
2023-09-19T06:13:30.440Z,52.08
2023-09-19T06:16:12.053Z,51.57
2023-09-19T06:25:21.343Z,50.07
2023-09-19T06:27:55.344Z,49.61
2023-09-19T06:30:27.053Z,49.60
2023-09-19T06:32:59.521Z,49.47
2023-09-19T06:35:55.641Z,49.01
2023-09-19T06:38:23.213Z,48.74
2023-09-19T06:40:52.704Z,48.40
2023-09-19T06:43:20.945Z,47.83
2023-09-19T06:45:49.816Z,47.51
2023-09-19T06:48:22.143Z,47.12
2023-09-19T06:51:16.701Z,46.90
2023-09-19T06:54:41.330Z,46.13
2023-09-19T06:57:17.430Z,46.01
2023-09-19T06:59:47.539Z,45.85
2023-09-19T07:16:01.685Z,44.14
2023-09-19T07:18:34.075Z,43.51
2023-09-19T07:21:35.387Z,43.30
2023-09-19T07:24:07.186Z,43.32
2023-09-19T07:26:36.025Z,43.44
2023-09-19T07:29:08.135Z,43.45
2023-09-19T07:31:39.147Z,43.66
2023-09-19T07:34:11.599Z,43.28
2023-09-19T07:37:15.974Z,43.00
2023-09-19T07:40:08.169Z,43.26
2023-09-19T07:45:49.811Z,43.17
2023-09-19T07:48:18.421Z,43.19
2023-09-19T07:50:46.401Z,42.62
2023-09-19T07:53:16.094Z,42.20
2023-09-19T07:55:49.810Z,41.77
2023-09-19T07:58:20.223Z,41.53
2023-09-19T08:00:53.059Z,41.43
2023-09-19T08:03:22.276Z,41.22
2023-09-19T08:12:09.683Z,39.94
2023-09-19T08:14:40.800Z,39.93
2023-09-19T08:28:01.837Z,44.30
2023-09-19T08:30:32.895Z,45.50
2023-09-19T08:35:53.124Z,43.67
2023-09-19T08:38:21.609Z,45.59
2023-09-19T08:40:50.524Z,46.28
2023-09-19T08:43:19.329Z,46.18
2023-09-19T08:45:48.466Z,45.18
2023-09-19T08:49:37.294Z,45.93
2023-09-19T08:52:11.933Z,46.89
2023-09-19T08:54:41.160Z,47.22
2023-09-19T08:57:13.596Z,47.04
2023-09-19T08:59:49.265Z,47.14
2023-09-19T09:02:20.628Z,47.88
2023-09-19T09:04:48.861Z,47.54
2023-09-19T09:07:18.548Z,47.26
2023-09-19T09:09:46.678Z,46.90
2023-09-19T09:12:17.572Z,47.57
2023-09-19T09:14:46.798Z,47.85
2023-09-19T09:17:15.077Z,48.14
2023-09-19T09:19:44.561Z,47.82
2023-09-19T09:22:13.137Z,46.70
2023-09-19T09:25:00.341Z,47.72
2023-09-19T09:27:28.534Z,44.33
2023-09-19T09:30:38.253Z,41.10
2023-09-19T09:33:13.086Z,38.52
2023-09-19T09:35:57.997Z,36.71
2023-09-19T09:38:29.301Z,35.90
2023-09-19T09:41:01.117Z,35.48
2023-09-19T09:43:31.666Z,35.36
2023-09-19T09:46:24.503Z,35.17
2023-09-19T09:49:15.614Z,35.16
2023-09-19T09:51:58.753Z,34.94
2023-09-19T09:54:34.754Z,34.70
2023-09-19T09:57:23.913Z,34.66
2023-09-19T09:59:56.825Z,34.35
2023-09-19T10:02:34.902Z,34.22
2023-09-19T10:05:42.414Z,33.76
2023-09-19T10:08:14.281Z,33.48
2023-09-19T10:11:07.920Z,33.44
2023-09-19T10:13:44.790Z,33.00
2023-09-19T10:16:16.245Z,32.75
2023-09-19T10:18:46.280Z,32.43
2023-09-19T10:21:15.538Z,32.02
2023-09-19T10:23:45.158Z,32.43
2023-09-19T10:26:13.591Z,32.34
2023-09-19T10:28:41.827Z,32.13
2023-09-19T10:31:12.189Z,31.99
2023-09-19T10:33:41.681Z,31.56
2023-09-19T10:50:25.260Z,30.65
2023-09-19T10:53:06.791Z,30.44
2023-09-19T10:55:36.843Z,30.03
2023-09-19T10:58:15.309Z,30.19
2023-09-19T11:00:57.331Z,29.82
2023-09-19T11:03:31.665Z,29.96
2023-09-19T11:06:26.056Z,29.67
2023-09-19T11:09:20.917Z,29.91
2023-09-19T11:11:54.589Z,30.24
2023-09-19T11:14:26.459Z,30.41
2023-09-19T11:17:07.330Z,30.33
2023-09-19T11:20:10.672Z,30.02
2023-09-19T11:22:56.505Z,29.18
2023-09-19T11:25:30.824Z,29.34
2023-09-19T11:28:08.646Z,29.51
2023-09-19T11:30:39.624Z,29.78
2023-09-19T11:33:32.057Z,29.80
2023-09-19T11:36:06.713Z,30.05
2023-09-19T11:38:55.026Z,30.02
2023-09-19T11:43:45.236Z,29.04
2023-09-19T11:46:13.265Z,28.88
2023-09-19T11:48:43.047Z,28.74
2023-09-19T11:51:29.611Z,28.75
2023-09-19T11:54:01.548Z,28.59
2023-09-19T11:56:29.829Z,28.33
2023-09-19T11:58:59.664Z,27.82
2023-09-19T12:01:38.596Z,27.86
2023-09-19T12:04:06.803Z,28.28
2023-09-19T12:06:35.896Z,28.26
2023-09-19T12:09:08.611Z,28.31
2023-09-19T12:11:44.036Z,28.65
2023-09-19T12:14:12.196Z,28.80
2023-09-19T12:16:40.558Z,28.71
2023-09-19T12:19:23.978Z,28.74
2023-09-19T12:22:11.923Z,28.37
2023-09-19T12:24:44.137Z,28.49
2023-09-19T12:27:13.997Z,28.35
2023-09-19T12:29:46.467Z,28.51
2023-09-19T12:35:32.160Z,28.84
2023-09-19T12:38:00.401Z,28.89
2023-09-19T12:40:34.880Z,29.01
2023-09-19T12:43:48.188Z,28.66
2023-09-19T12:46:20.054Z,28.61
2023-09-19T12:48:55.442Z,28.73
2023-09-19T12:51:26.258Z,28.52
2023-09-19T12:53:58.819Z,28.39
2023-09-19T12:56:28.644Z,28.29
2023-09-19T12:59:05.198Z,28.12
2023-09-19T13:01:33.665Z,28.00
2023-09-19T13:04:27.502Z,27.67
2023-09-19T13:06:56.730Z,28.04
2023-09-19T13:09:36.615Z,28.10
2023-09-19T13:12:09.116Z,27.88
2023-09-19T13:14:41.858Z,27.75
2023-09-19T13:17:21.296Z,27.81
2023-09-19T13:19:51.538Z,27.65
2023-09-19T13:26:53.571Z,27.78
2023-09-19T13:29:21.743Z,27.96
2023-09-19T13:31:50.702Z,28.02
2023-09-19T13:34:19.211Z,28.19
2023-09-19T13:36:49.710Z,28.35
2023-09-19T13:43:51.048Z,27.85
2023-09-19T13:46:28.509Z,27.86
2023-09-19T13:48:57.188Z,27.75
2023-09-19T13:51:29.061Z,27.71
2023-09-19T13:54:17.333Z,27.78
2023-09-19T13:56:50.835Z,28.11
2023-09-19T14:03:52.668Z,28.48
2023-09-19T14:06:21.429Z,28.46
2023-09-19T14:08:51.329Z,28.52
2023-09-19T14:11:21.552Z,28.72
2023-09-19T14:13:51.128Z,28.85
2023-09-19T14:16:19.635Z,28.73
2023-09-19T14:18:47.894Z,28.87
2023-09-19T14:21:16.187Z,28.87
2023-09-19T14:23:50.143Z,28.96
2023-09-19T14:26:24.772Z,28.76
2023-09-19T14:28:55.931Z,28.53
2023-09-19T14:31:26.141Z,28.50
2023-09-19T14:34:00.537Z,28.34
2023-09-19T14:36:29.922Z,28.15
2023-09-19T14:38:58.711Z,27.85
2023-09-19T14:41:27.699Z,27.77
2023-09-19T14:43:59.251Z,27.95
2023-09-19T14:46:27.738Z,28.13
2023-09-19T14:49:03.638Z,28.08
2023-09-19T14:51:31.979Z,28.21
2023-09-19T14:57:34.499Z,28.32
2023-09-19T15:00:03.156Z,28.18
2023-09-19T15:02:33.648Z,28.33
2023-09-19T15:05:03.223Z,28.44
2023-09-19T15:07:32.481Z,28.69
2023-09-19T15:10:00.393Z,28.93
2023-09-19T15:12:30.717Z,29.09
2023-09-19T15:14:58.813Z,29.25
2023-09-19T15:17:27.676Z,29.42
2023-09-19T15:19:58.377Z,29.64
2023-09-19T15:22:27.410Z,29.69
2023-09-19T15:24:56.839Z,29.94
2023-09-19T15:27:25.033Z,30.20
2023-09-19T15:29:53.257Z,30.50
2023-09-19T15:32:21.306Z,30.73
2023-09-19T15:34:49.359Z,30.97
2023-09-19T15:37:17.620Z,31.35
2023-09-19T15:39:47.489Z,31.50
2023-09-19T15:42:17.539Z,31.63
2023-09-19T15:44:47.972Z,31.72
2023-09-19T15:47:16.310Z,31.58
2023-09-19T15:49:45.972Z,31.87
2023-09-19T15:52:14.104Z,32.24
2023-09-19T15:54:46.130Z,32.31
2023-09-19T15:57:14.051Z,32.47
2023-09-19T15:59:41.826Z,32.53
2023-09-19T16:02:10.030Z,32.81
2023-09-19T16:04:40.085Z,32.99
2023-09-19T16:07:08.209Z,33.30
2023-09-19T16:09:36.856Z,33.34
2023-09-19T16:12:04.949Z,33.57
2023-09-19T16:14:32.796Z,33.70
2023-09-19T16:17:01.359Z,34.02
2023-09-19T16:19:29.661Z,34.07
2023-09-19T16:21:57.425Z,34.19
2023-09-19T16:24:29.115Z,34.25
2023-09-19T16:27:21.823Z,34.53
2023-09-19T16:29:53.152Z,34.46
2023-09-19T16:32:21.836Z,34.63
2023-09-19T16:34:49.694Z,34.91
2023-09-19T16:37:18.590Z,34.88
2023-09-19T16:39:46.803Z,35.07
2023-09-19T16:42:21.323Z,35.20
2023-09-19T16:44:51.580Z,35.27
2023-09-19T16:47:19.752Z,35.34
2023-09-19T16:49:47.630Z,35.46
2023-09-19T16:52:15.585Z,35.60
2023-09-19T16:54:43.956Z,35.68
2023-09-19T16:57:11.753Z,35.80
2023-09-19T16:59:41.648Z,35.97
2023-09-19T17:02:09.831Z,36.15
2023-09-19T17:04:37.812Z,36.27
2023-09-19T17:07:06.760Z,36.44
2023-09-19T17:09:35.988Z,36.52
2023-09-19T17:12:15.555Z,36.67
2023-09-19T17:14:51.643Z,36.79
2023-09-19T17:17:22.727Z,36.92
2023-09-19T17:19:52.075Z,37.01
2023-09-19T17:22:20.826Z,37.12
2023-09-19T17:28:10.863Z,37.21
2023-09-19T17:30:41.404Z,37.37
2023-09-19T17:37:23.672Z,37.51
2023-09-19T17:39:52.595Z,37.58
2023-09-19T17:42:23.065Z,37.61
2023-09-19T17:44:57.105Z,37.72
2023-09-19T17:47:32.574Z,37.78
2023-09-19T17:50:13.558Z,37.87
2023-09-19T17:52:46.929Z,37.86
2023-09-19T17:55:17.918Z,37.99
2023-09-19T17:58:42.427Z,38.14
2023-09-19T18:02:34.942Z,38.31
2023-09-19T18:05:05.983Z,38.64
2023-09-19T18:07:39.404Z,38.72
2023-09-19T18:10:09.970Z,38.81
2023-09-19T18:12:57.500Z,38.88
2023-09-19T18:15:36.644Z,38.90
2023-09-19T18:25:50.045Z,39.17
2023-09-19T18:28:19.181Z,39.15
2023-09-19T18:30:50.053Z,39.26
2023-09-19T18:33:19.159Z,39.44
2023-09-19T18:36:08.615Z,39.54
2023-09-19T18:38:42.283Z,39.62
2023-09-19T18:42:01.391Z,39.69
2023-09-19T18:44:56.637Z,39.80
2023-09-19T18:51:36.377Z,39.90
2023-09-19T18:54:15.138Z,40.12
2023-09-19T18:56:45.132Z,40.19
2023-09-19T18:59:27.625Z,40.43
2023-09-19T19:22:43.408Z,41.73
2023-09-19T19:25:12.711Z,41.68
2023-09-19T19:27:46.845Z,41.86
2023-09-19T19:30:19.785Z,41.86
2023-09-19T19:41:20.343Z,42.12
2023-09-19T19:43:53.195Z,42.16
2023-09-19T20:01:03.559Z,42.08
2023-09-19T20:04:22.645Z,42.06
2023-09-19T20:18:15.445Z,41.99
2023-09-19T20:27:33.613Z,42.34
2023-09-19T20:39:11.641Z,43.31
2023-09-19T20:41:58.350Z,43.57
2023-09-19T20:44:47.315Z,43.62
2023-09-19T20:47:24.953Z,43.76
2023-09-19T20:49:57.489Z,43.98
2023-09-19T20:52:25.324Z,44.02
2023-09-19T20:54:54.152Z,44.13
2023-09-19T20:57:27.934Z,44.24
2023-09-19T21:00:27.183Z,44.52
2023-09-19T21:03:39.778Z,44.55
2023-09-19T21:06:14.542Z,44.66
2023-09-19T21:08:43.370Z,44.76
2023-09-19T21:11:24.478Z,44.93
2023-09-19T21:13:57.023Z,45.07
2023-09-19T21:16:29.129Z,45.30
2023-09-19T21:19:04.701Z,45.36
2023-09-19T21:21:38.111Z,45.43
2023-09-19T21:24:12.704Z,45.54
2023-09-19T21:26:42.716Z,45.53
2023-09-19T21:29:11.507Z,45.55
2023-09-19T21:31:43.143Z,45.79
2023-09-19T21:34:10.732Z,45.87
2023-09-19T21:36:45.472Z,46.02
2023-09-19T21:39:14.503Z,45.99
2023-09-19T21:41:42.407Z,46.10
2023-09-19T21:44:12.968Z,46.22
2023-09-19T21:46:40.664Z,46.24
2023-09-19T21:49:08.526Z,46.29
2023-09-19T21:51:35.963Z,46.43
2023-09-19T21:54:04.067Z,46.40
2023-09-19T21:56:31.920Z,46.43
2023-09-19T21:59:26.552Z,46.53
2023-09-19T22:01:54.201Z,46.62
2023-09-19T22:04:26.991Z,46.67
2023-09-19T22:06:55.787Z,46.72
2023-09-19T22:09:31.098Z,46.79
2023-09-19T22:12:07.651Z,46.82
2023-09-19T22:14:36.246Z,46.90
2023-09-19T22:17:04.457Z,46.97
2023-09-19T22:19:32.235Z,47.07
2023-09-19T22:22:02.167Z,47.24
2023-09-19T22:24:31.433Z,47.30
2023-09-19T22:27:01.086Z,47.50
2023-09-19T22:29:30.023Z,47.60
2023-09-19T22:31:59.501Z,47.72
2023-09-19T22:34:30.955Z,47.72
2023-09-19T22:36:59.679Z,47.99
2023-09-19T22:39:30.143Z,48.08
2023-09-19T22:42:00.145Z,48.19
2023-09-19T22:44:28.173Z,48.35
2023-09-19T22:46:56.598Z,48.49
2023-09-19T22:49:27.181Z,48.66
2023-09-19T22:51:59.723Z,48.80
2023-09-19T22:54:28.190Z,49.00
2023-09-19T22:56:55.575Z,49.04
2023-09-19T22:59:22.862Z,49.18
2023-09-19T23:01:51.093Z,49.35
2023-09-19T23:10:48.479Z,49.91
2023-09-19T23:13:26.297Z,50.03
2023-09-19T23:16:14.893Z,50.05
2023-09-19T23:24:43.449Z,50.17
2023-09-19T23:27:13.641Z,50.32
2023-09-19T23:29:41.603Z,50.36
2023-09-19T23:32:11.405Z,50.29
2023-09-19T23:34:40.446Z,50.16
2023-09-19T23:48:18.031Z,49.00
2023-09-19T23:50:47.926Z,48.57
2023-09-19T23:53:15.562Z,48.74
2023-09-19T23:55:42.857Z,48.82
2023-09-19T23:58:10.550Z,48.89
